Data for 07/31/2007

Time Sea-Level Adjusted Pressure Absolute Pressure Temperature Relative Humidity Dew Point   
(mb) (inHg) (mb) (inHg) (C) (F) (%) (C) (F)
00:05 1018 30.06 847 25.01 24 75.3 32 6.7 44.1
00:10 1018 30.06 847 25.01 24.2 75.6 34 7.6 45.8
00:15 1017 30.03 847 25.01 23.7 74.7 33 6.9 44.4
00:20 1017 30.03 846 24.98 24.1 75.4 31 6.1 42.9
00:25 1017 30.03 847 25.01 24.6 76.2 31 6.4 43.5
00:30 1017 30.03 847 25.01 24.6 76.3 32 7.2 44.9
00:35 1017 30.03 847 25.01 24.1 75.3 36 8.4 47.2
00:40 1017 30.03 847 25.01 23 73.4 40 8.7 47.7
00:45 1017 30.03 847 25.01 22.5 72.6 39 8.1 46.6
00:50 1018 30.06 847 25.01 22.2 72 41 8.6 47.5
00:55 1018 30.06 847 25.01 22 71.5 41 8.2 46.8
01:00 1018 30.06 847 25.01 22.3 72.2 36 6.5 43.8
01:05 1018 30.06 847 25.01 22.6 72.6 40 8.3 47
01:10 1018 30.06 847 25.01 22.4 72.3 36 7 44.5
01:15 1018 30.06 847 25.01 22.9 73.3 34 6.5 43.7
01:20 1017 30.03 847 25.01 23.3 73.9 34 6.5 43.7
01:25 1017 30.03 847 25.01 23.3 74 34 6.7 44.1
01:30 1017 30.03 847 25.01 23.4 74.1 33 6.5 43.7
01:35 1017 30.03 846 24.98 23.4 74.2 33 6.7 44
01:40 1017 30.03 847 25.01 23.1 73.5 36 7.3 45.1
01:45 1017 30.03 847 25.01 22.4 72.4 38 7.5 45.6
01:50 1017 30.03 846 24.98 22.3 72.1 37 7.1 44.7
01:55 1017 30.03 847 25.01 22.4 72.4 37 7.1 44.7
02:00 1017 30.03 847 25.01 22.1 71.8 39 7.7 45.9
02:05 1017 30.03 847 25.01 21.9 71.5 40 8 46.3
02:10 1017 30.03 847 25.01 22.1 71.7 38 7.2 45
02:15 1017 30.03 847 25.01 22.2 71.9 41 8.4 47.2
02:20 1017 30.03 847 25.01 22.6 72.6 34 6.3 43.3
02:25 1017 30.03 846 24.98 22.5 72.6 37 7.2 45
02:30 1017 30.03 847 25.01 22.5 72.4 35 6.3 43.3
02:35 1017 30.03 846 24.98 22.9 73.3 34 6.3 43.4
02:40 1017 30.03 846 24.98 22.8 73 35 6.7 44.1
02:45 1017 30.03 846 24.98 22.7 72.9 35 6.9 44.4
02:50 1017 30.03 846 24.98 22.4 72.4 36 7 44.5
02:55 1017 30.03 846 24.98 22.4 72.3 37 7.1 44.8
03:00 1017 30.03 846 24.98 22.2 72 38 7.3 45.2
03:05 1017 30.03 846 24.98 22.3 72.2 37 7 44.6
03:10 1017 30.03 846 24.98 22 71.5 38 7.1 44.9
03:15 1017 30.03 846 24.98 22.2 71.9 34 6 42.7
03:20 1017 30.03 846 24.98 22.7 72.9 34 6.2 43.2
03:25 1017 30.03 846 24.98 22.9 73.1 34 6.4 43.5
03:30 1017 30.03 846 24.98 23 73.4 34 6.6 43.8
03:35 1017 30.03 846 24.98 22.9 73.2 35 7 44.6
03:40 1017 30.03 846 24.98 22.2 71.9 41 8.4 47.1
03:45 1017 30.03 846 24.98 21.4 70.5 38 6.7 44.1
03:50 1017 30.03 846 24.98 21.4 70.6 46 9.6 49.3
03:55 1017 30.03 846 24.98 21.3 70.3 40 7.4 45.3
04:00 1017 30.03 846 24.98 21.2 70.2 39 6.9 44.4
04:05 1017 30.03 846 24.98 21.2 70.2 38 6.4 43.6
04:10 1017 30.03 846 24.98 21.5 70.7 37 6.3 43.4
04:15 1017 30.03 846 24.98 21.8 71.3 36 6.1 42.9
04:20 1017 30.03 846 24.98 21.9 71.4 40 7.7 45.9
04:25 1017 30.03 846 24.98 21.7 71.1 38 7 44.7
04:30 1017 30.03 846 24.98 21.3 70.4 38 6.5 43.7
04:35 1017 30.03 846 24.98 21.3 70.4 37 6.2 43.2
04:40 1017 30.03 846 24.98 21.4 70.5 43 8.3 47
04:45 1017 30.03 846 24.98 20.8 69.4 44 8.2 46.7
04:50 1017 30.03 846 24.98 20.2 68.4 45 8.2 46.7
04:55 1017 30.03 846 24.98 20 67.9 46 8.2 46.8
05:00 1017 30.03 846 24.98 19.9 67.7 47 8.5 47.2
05:05 1017 30.03 846 24.98 19.6 67.3 49 8.7 47.6
05:10 1017 30.03 846 24.98 19.2 66.5 53 9.4 48.9
05:15 1017 30.03 846 24.98 18.8 65.8 50 8.1 46.7
05:20 1017 30.03 846 24.98 18.7 65.6 53 9 48.2
05:25 1017 30.03 846 24.98 18.7 65.6 51 8.5 47.4
05:30 1017 30.03 846 24.98 18.2 64.8 54 8.8 47.8
05:35 1017 30.03 846 24.98 17.9 64.2 53 8.3 47
05:40 1017 30.03 846 24.98 17.7 63.8 54 8.4 47.1
05:45 1017 30.03 847 25.01 17.7 63.8 55 8.5 47.4
05:50 1017 30.03 847 25.01 17.6 63.7 55 8.4 47.2
05:55 1017 30.03 847 25.01 17.8 64.1 53 8.1 46.7
06:00 1018 30.06 847 25.01 17.7 63.8 52 7.8 46
06:05 1018 30.06 847 25.01 18 64.5 51 7.9 46.3
06:10 1018 30.06 847 25.01 18 64.3 53 8.4 47.2
06:15 1018 30.06 847 25.01 17.7 63.9 52 7.8 46
06:20 1018 30.06 847 25.01 17.7 63.8 54 8.4 47.2
06:25 1018 30.06 847 25.01 17.5 63.4 55 8.4 47.1
06:30 1018 30.06 847 25.01 17.3 63.1 57 8.8 47.8
06:35 1018 30.06 847 25.01 17.2 62.9 55 8.2 46.8
06:40 1018 30.06 847 25.01 17.5 63.5 52 7.6 45.7
06:45 1018 30.06 847 25.01 18.1 64.5 49 7.2 45
06:50 1018 30.06 847 25.01 18.6 65.5 48 7.5 45.4
06:55 1018 30.06 847 25.01 18.8 65.8 50 8.4 47.1
07:00 1018 30.06 848 25.04 18.6 65.5 50 8 46.5
07:05 1019 30.09 848 25.04 18.6 65.6 49 7.9 46.2
07:10 1019 30.09 848 25.04 18.6 65.5 50 8.1 46.6
07:15 1019 30.09 848 25.04 18.6 65.5 54 9.2 48.6
07:20 1019 30.09 848 25.04 18.3 65 54 8.9 48.1
07:25 1019 30.09 848 25.04 18 64.3 55 9 48.1
07:30 1019 30.09 848 25.04 18.4 65.2 52 8.5 47.4
07:35 1019 30.09 848 25.04 18.9 65.9 54 9.4 48.9
07:40 1019 30.09 848 25.04 18.8 65.8 56 9.9 49.9
07:45 1019 30.09 848 25.04 18.3 65 57 9.7 49.5
07:50 1019 30.09 848 25.04 18.2 64.7 54 8.7 47.7
07:55 1019 30.09 848 25.04 18.5 65.3 52 8.6 47.6
08:00 1019 30.09 848 25.04 18.8 65.9 54 9.3 48.8
08:05 1019 30.09 848 25.04 18.7 65.6 56 9.8 49.7
08:10 1019 30.09 848 25.04 18.5 65.3 55 9.5 49.1
08:15 1019 30.09 848 25.04 18.5 65.3 53 8.8 47.9
08:20 1019 30.09 848 25.04 18.8 65.8 53 9.2 48.6
08:25 1019 30.09 848 25.04 19.2 66.6 50 8.8 47.8
08:30 1019 30.09 848 25.04 19.7 67.4 49 8.9 47.9
08:35 1019 30.09 848 25.04 19.9 67.8 48 8.7 47.7
08:40 1019 30.09 848 25.04 19.8 67.6 47 8.2 46.8
08:45 1019 30.09 848 25.04 19.6 67.3 53 9.8 49.7
08:50 1019 30.09 848 25.04 19.6 67.3 49 8.9 48
08:55 1019 30.09 848 25.04 19.9 67.9 49 9 48.2
09:00 1019 30.09 848 25.04 20.1 68.2 52 10.1 50.1
09:05 1019 30.09 848 25.04 20.1 68.2 51 9.8 49.7
09:10 1019 30.09 848 25.04 20.4 68.6 51 9.9 49.8
09:15 1019 30.09 848 25.04 20.7 69.2 50 9.9 49.9
09:20 1019 30.09 848 25.04 20.9 69.6 50 10.1 50.2
09:25 1019 30.09 848 25.04 21.2 70.1 49 10.2 50.4
09:30 1019 30.09 849 25.07 21.4 70.6 45 9.3 48.8
09:35 1020 30.12 849 25.07 21.8 71.2 44 9 48.2
09:40 1020 30.12 849 25.07 22.1 71.8 42 8.7 47.6
09:45 1020 30.12 849 25.07 22.5 72.4 42 9.2 48.6
09:50 1019 30.09 849 25.07 22.5 72.5 41 8.8 47.9
09:55 1020 30.12 849 25.07 22.6 72.7 44 9.8 49.6
10:00 1019 30.09 849 25.07 22.7 72.8 42 9.2 48.6
10:05 1019 30.09 849 25.07 22.9 73.1 44 10.1 50.2
10:10 1019 30.09 848 25.04 23 73.3 45 10.7 51.3
10:15 1019 30.09 848 25.04 22.4 72.3 46 10.3 50.6
10:20 1019 30.09 848 25.04 21.9 71.5 49 10.8 51.4
10:25 1019 30.09 848 25.04 22 71.7 47 10.3 50.6
10:30 1019 30.09 848 25.04 22.5 72.4 46 10.5 50.9
10:35 1019 30.09 848 25.04 22.8 73.1 46 10.6 51.2
10:40 1019 30.09 848 25.04 22.7 72.9 46 10.6 51.1
10:45 1019 30.09 848 25.04 23 73.4 42 9.7 49.4
10:50 1019 30.09 848 25.04 23.9 75 37 8.6 47.5
10:55 1019 30.09 848 25.04 23.9 75.1 37 8.6 47.4
11:00 1019 30.09 848 25.04 24.7 76.4 33 7.7 45.8
11:05 1019 30.09 848 25.04 25.2 77.3 33 8 46.5
11:10 1019 30.09 848 25.04 25.6 78 33 8.3 46.9
11:15 1019 30.09 848 25.04 26.1 79 32 8.4 47.1
11:20 1019 30.09 848 25.04 26.1 79 33 8.8 47.8
11:25 1019 30.09 848 25.04 25.8 78.5 32 8 46.4
11:30 1019 30.09 848 25.04 26.2 79.2 31 8.1 46.6
11:35 1019 30.09 848 25.04 26.3 79.3 30 7.8 46
11:40 1019 30.09 848 25.04 26.9 80.4 31 8.6 47.5
11:45 1019 30.09 848 25.04 27.8 82 28 8.1 46.6
11:50 1018 30.06 848 25.04 28.3 82.9 28 8.3 46.9
11:55 1018 30.06 848 25.04 28.1 82.6 29 8.7 47.6
12:00 1018 30.06 848 25.04 28.8 83.8 28 8.5 47.3
12:05 1018 30.06 848 25.04 28.9 84 29 9.2 48.5
12:10 1018 30.06 848 25.04 28.8 83.8 27 8 46.4
12:15 1018 30.06 848 25.04 29.1 84.4 28 8.9 48
12:20 1018 30.06 847 25.01 29.3 84.7 27 8.8 47.9
12:25 1018 30.06 847 25.01 29.4 84.8 27 8.6 47.4
12:30 1018 30.06 847 25.01 29.6 85.2 27 8.9 48.1
12:35 1018 30.06 847 25.01 29.7 85.5 26 8.2 46.8
12:40 1018 30.06 847 25.01 29.7 85.5 27 9 48.2
12:45 1018 30.06 847 25.01 29.9 85.8 28 9.5 49.1
12:50 1018 30.06 847 25.01 30.3 86.6 25 8.6 47.4
12:55 1018 30.06 847 25.01 30.9 87.7 26 9.4 49
13:00 1018 30.06 847 25.01 30.5 87 26 9.3 48.7
13:05 1018 30.06 847 25.01 30.6 87.1 25 8.9 48
13:10 1018 30.06 847 25.01 30.6 87 25 8.7 47.7
13:15 1018 30.06 847 25.01 30.6 87.1 28 10.3 50.5
13:20 1018 30.06 847 25.01 29.8 85.6 27 9 48.3
13:25 1018 30.06 847 25.01 30.5 87 25 8.7 47.6
13:30 1018 30.06 847 25.01 31.1 88 26 9.7 49.5
13:35 1018 30.06 847 25.01 30.9 87.6 24 8.5 47.3
13:40 1018 30.06 847 25.01 30.7 87.2 25 8.5 47.2
13:45 1018 30.06 847 25.01 31.4 88.5 23 7.9 46.1
13:50 1018 30.06 847 25.01 31.1 87.9 23 8 46.4
13:55 1017 30.03 847 25.01 30.6 87 22 7 44.6
14:00 1017 30.03 847 25.01 30.4 86.6 25 8.2 46.8
14:05 1017 30.03 847 25.01 30.9 87.6 22 7.3 45.2
14:10 1017 30.03 847 25.01 30.7 87.2 23 7.7 45.9
14:15 1017 30.03 846 24.98 30.6 87 22 6.6 43.9
14:20 1017 30.03 846 24.98 31.4 88.5 20 5.9 42.6
14:25 1017 30.03 846 24.98 31.3 88.4 22 7.5 45.5
14:30 1017 30.03 846 24.98 30.9 87.7 21 6.7 44.1
14:35 1017 30.03 846 24.98 31.9 89.3 20 6.5 43.7
14:40 1017 30.03 846 24.98 32.6 90.7 19 6.1 42.9
14:45 1017 30.03 846 24.98 32.8 91 18 6.1 42.9
14:50 1017 30.03 846 24.98 32.9 91.3 18 5.8 42.4
14:55 1017 30.03 846 24.98 32.9 91.3 19 6.4 43.5
15:00 1017 30.03 846 24.98 32.9 91.2 19 6.7 44
15:05 1017 30.03 846 24.98 32.4 90.4 19 6 42.8
15:10 1017 30.03 846 24.98 32.4 90.3 20 6.6 43.9
15:15 1017 30.03 846 24.98 32.2 90 19 6.2 43.2
15:20 1017 30.03 846 24.98 32.1 89.7 19 5.6 42.1
15:25 1017 30.03 846 24.98 32.1 89.8 19 6.3 43.3
15:30 1017 30.03 846 24.98 32.3 90.1 18 5.7 42.2
15:35 1017 30.03 846 24.98 32.5 90.5 16 4 39.2
15:40 1017 30.03 846 24.98 32.8 91 18 5.9 42.6
15:45 1017 30.03 846 24.98 32.2 89.9 19 6.3 43.4
15:50 1017 30.03 846 24.98 32.2 90 16 3.6 38.5
15:55 1017 30.03 846 24.98 32.1 89.7 18 5.4 41.7
16:00 1017 30.03 846 24.98 32.6 90.7 18 5.3 41.5
16:05 1017 30.03 846 24.98 33.3 91.9 15 3.9 39
16:10 1017 30.03 846 24.98 33.4 92.1 16 4.2 39.6
16:15 1017 30.03 846 24.98 33.1 91.6 16 4.5 40.2
16:20 1017 30.03 846 24.98 33.1 91.5 16 4.8 40.6
16:25 1017 30.03 846 24.98 32.7 90.8 16 3.9 39.1
16:30 1017 30.03 846 24.98 33.2 91.8 16 4.2 39.6
16:35 1017 30.03 846 24.98 33.1 91.5 15 3.6 38.4
16:40 1017 30.03 846 24.98 32.3 90.2 17 4.2 39.6
16:45 1017 30.03 846 24.98 32.9 91.2 15 3.6 38.5
16:50 1017 30.03 846 24.98 33.1 91.5 15 3.6 38.5
16:55 1017 30.03 846 24.98 33.3 91.9 15 3.5 38.4
17:00 1017 30.03 846 24.98 33.1 91.6 15 3.3 37.9
17:05 1017 30.03 846 24.98 32.7 90.9 15 3.4 38
17:10 1017 30.03 846 24.98 33.2 91.7 15 3.5 38.3
17:15 1017 30.03 846 24.98 32.4 90.2 17 4.7 40.5
17:20 1017 30.03 846 24.98 32.5 90.5 16 3.5 38.3
17:25 1017 30.03 846 24.98 32.9 91.3 16 3.9 38.9
17:30 1017 30.03 846 24.98 32.4 90.4 16 4 39.2
17:35 1017 30.03 846 24.98 32.6 90.7 16 3.5 38.3
17:40 1017 30.03 846 24.98 32.4 90.2 15 3.1 37.5
17:45 1016 30 846 24.98 32.7 90.9 17 5.2 41.3
17:50 1016 30 846 24.98 33 91.4 15 3.5 38.3
17:55 1016 30 846 24.98 33.7 92.7 15 3.7 38.7
18:00 1016 30 845 24.95 33.6 92.5 15 4.2 39.6
18:05 1016 30 845 24.95 33.3 92 15 3.6 38.5
18:10 1016 30 845 24.95 33.2 91.7 14 2.9 37.3
18:15 1016 30 845 24.95 33.3 91.9 15 3.8 38.8
18:20 1016 30 845 24.95 33.2 91.8 15 3.6 38.4
18:25 1016 30 845 24.95 33.1 91.6 15 3.5 38.3
18:30 1016 30 845 24.95 33.2 91.8 14 3 37.4
18:35 1016 30 845 24.95 33 91.3 14 2.8 37
18:40 1016 30 845 24.95 33 91.4 15 3 37.4
18:45 1016 30 845 24.95 33.1 91.5 16 4.1 39.3
18:50 1016 30 845 24.95 32.7 90.8 15 2.9 37.3
18:55 1016 30 845 24.95 32.6 90.6 14 2.4 36.4
19:00 1016 30 845 24.95 32.2 89.9 14 2 35.6
19:05 1016 30 846 24.98 32 89.5 14 1.4 34.4
19:10 1016 30 846 24.98 31.9 89.3 15 2.1 35.8
19:15 1016 30 846 24.98 31.6 88.8 15 2.5 36.6
19:20 1017 30.03 846 24.98 31.4 88.5 18 4.3 39.7
19:25 1017 30.03 846 24.98 31.2 88.2 16 2.4 36.3
19:30 1017 30.03 846 24.98 31 87.9 16 2.3 36.2
19:35 1017 30.03 846 24.98 30.9 87.6 16 2.6 36.7
19:40 1017 30.03 846 24.98 30.7 87.3 16 2.3 36.2
19:45 1017 30.03 846 24.98 30.6 87 16 2.7 36.8
19:50 1017 30.03 846 24.98 30.4 86.8 16 2.2 36
19:55 1017 30.03 846 24.98 30.2 86.4 18 3.7 38.6
20:00 1017 30.03 846 24.98 30 86 18 3.3 38
20:05 1017 30.03 846 24.98 29.9 85.7 19 3.8 38.8
20:10 1017 30.03 846 24.98 29.7 85.4 20 4.6 40.2
20:15 1017 30.03 846 24.98 29.4 84.9 19 3.4 38.1
20:20 1017 30.03 846 24.98 29.2 84.5 19 3.6 38.4
20:25 1017 30.03 846 24.98 29 84.2 19 3.5 38.2
20:30 1017 30.03 846 24.98 28.9 83.9 19 3.6 38.4
20:35 1017 30.03 846 24.98 28.6 83.4 19 3.1 37.6
20:40 1017 30.03 847 25.01 28.4 83.1 19 3.2 37.7
20:45 1017 30.03 847 25.01 28.2 82.7 19 2.6 36.6
20:50 1017 30.03 847 25.01 27.9 82.2 19 2.7 36.8
20:55 1018 30.06 847 25.01 27.6 81.7 20 2.6 36.7
21:00 1018 30.06 847 25.01 27.4 81.4 20 2.6 36.7
21:05 1018 30.06 847 25.01 27.2 80.9 21 3 37.3
21:10 1018 30.06 847 25.01 26.9 80.4 20 2.6 36.8
21:15 1018 30.06 847 25.01 26.7 80 21 2.9 37.3
21:20 1018 30.06 847 25.01 26.5 79.6 21 2.9 37.2
21:25 1018 30.06 847 25.01 26.3 79.3 22 3.3 37.9
21:30 1018 30.06 847 25.01 25.5 78 30 6.7 44.1
21:35 1018 30.06 848 25.04 24.3 75.8 29 5.4 41.6
21:40 1019 30.09 848 25.04 23.9 75.1 31 5.8 42.4
21:45 1019 30.09 848 25.04 23.6 74.6 38 8.6 47.4
21:50 1019 30.09 848 25.04 23 73.4 37 7.8 46.1
21:55 1019 30.09 848 25.04 22.4 72.4 34 5.8 42.5
22:00 1019 30.09 848 25.04 22.1 71.8 33 5.2 41.3
22:05 1019 30.09 848 25.04 22.2 72 30 4 39.1
22:10 1019 30.09 848 25.04 22.5 72.4 32 5 41.1
22:15 1019 30.09 848 25.04 22.3 72.1 30 4.2 39.6
22:20 1019 30.09 848 25.04 22.2 71.9 31 4.2 39.6
22:25 1019 30.09 849 25.07 22.2 71.9 30 4 39.2
22:30 1019 30.09 849 25.07 22.2 72 30 4 39.3
22:35 1020 30.12 849 25.07 22.4 72.3 30 4.1 39.3
22:40 1020 30.12 849 25.07 22.1 71.7 30 3.9 39
22:45 1020 30.12 849 25.07 22.4 72.4 28 3.1 37.6
22:50 1020 30.12 849 25.07 22.9 73.3 27 3.3 38
22:55 1020 30.12 849 25.07 22.8 73 29 4 39.3
23:00 1020 30.12 849 25.07 21.9 71.4 31 4.2 39.5
23:05 1020 30.12 849 25.07 21.3 70.3 33 4.5 40
23:10 1020 30.12 849 25.07 20.9 69.6 31 3.5 38.2
23:15 1020 30.12 849 25.07 21.1 70 30 3.3 37.9
23:20 1020 30.12 849 25.07 21.4 70.5 29 2.9 37.2
23:25 1020 30.12 849 25.07 21.2 70.2 31 3.7 38.6
23:30 1020 30.12 849 25.07 21 69.9 29 2.5 36.6
23:35 1020 30.12 849 25.07 21.8 71.2 26 1.8 35.3
23:40 1020 30.12 849 25.07 22.3 72.2 24 0.8 33.5
23:45 1020 30.12 850 25.1 22.7 72.9 22 0 32
23:50 1020 30.12 850 25.1 22.9 73.2 21 -0.3 31.5
23:55 1020 30.12 850 25.1 23 73.4 21 -0 32
24:00 1021 30.15 850 25.1 22.7 72.9 27 3.2 37.7